Terminal Aerodrome Forecast
Issued by NWS

Home | Current Version | Previous Version | Text Only | Print | Product List | Glossary On
Versions: 1 2 3 4 5 6 7 8 9 10 11 12 13 14 15 16 17 18 19 20 21 22 23 24 25 26 27 28 29 30 31 32
357
FTUS41 KOKX 212334
TAFTEB
TAF
KTEB 212334Z 2200/2224 18006KT P6SM BKN180
     FM220100 VRB02KT P6SM BKN180
     FM220800 VRB02KT P6SM FEW035 OVC090
     FM221200 VRB03KT P6SM VCSH BKN035
     FM221600 21005KT P6SM SCT035 BKN100
     FM222100 VRB03KT P6SM BKN250=

USA.gov is the U.S. government's official web portal to all federal, state and local government web resources and services.